Time;durP1;ratioP1;P1;durP2;ratioP2;P2;SDS_P1;SDS_P2;PMS_P1;PMS_P2;Temp;Humidity;BMP_temperature;BMP_pressure;BME280_temperature;BME280_humidity;BME280_pressure;Samples;Min_cycle;Max_cycle;Signal;HPM_P1;HPM_P2
2023/05/21 00:01:55;;;;;;;;;;;20.00;88.30;;;20.25;53.42;98270.16;5081649;27;114108;-88
2023/05/21 00:04:24;;;;;;;;;;;20.00;88.50;;;20.25;53.90;98272.94;5070509;27;124121;-88
2023/05/21 00:06:53;;;;;;;;;;;20.00;88.80;;;20.24;53.83;98273.34;5044042;27;122032;-88
2023/05/21 00:09:19;;;;;;;;;;;20.00;88.90;;;20.20;53.90;98269.72;5058098;27;114352;-89
2023/05/21 00:11:46;;;;;;;;;;;19.90;89.00;;;20.18;53.81;98272.91;5085919;27;113701;-89
2023/05/21 00:14:12;;;;;;;;;;;19.90;89.10;;;20.18;54.03;98272.91;5049560;27;123128;-89
2023/05/21 00:16:41;;;;;;;;;;;19.90;89.30;;;20.15;53.84;98268.09;5074620;27;125609;-88
2023/05/21 00:19:09;;;;;;;;;;;19.90;89.50;;;20.12;54.18;98256.81;5089588;27;114801;-88
2023/05/21 00:21:35;;;;;;;;;;;19.90;89.80;;;20.09;54.42;98258.41;5086530;27;113467;-88
2023/05/21 00:24:01;;;;;;;;;;;19.90;90.00;;;20.06;54.15;98253.59;5088662;27;124156;-89
2023/05/21 00:26:29;;;;;;;;;;;19.80;89.90;;;20.05;54.53;98255.59;5064881;27;123943;-87
2023/05/21 00:28:56;;;;;;;;;;;19.80;90.00;;;20.02;54.54;98247.16;5088403;27;114848;-87
2023/05/21 00:31:22;;;;;;;;;;;19.80;90.10;;;20.03;54.31;98254.38;5069898;27;113005;-86
2023/05/21 00:33:48;;;;;;;;;;;19.80;90.10;;;20.02;54.52;98252.75;5070873;27;124140;-87
2023/05/21 00:36:17;;;;;;;;;;;19.80;90.20;;;20.00;54.59;98246.72;5066194;27;124091;-87
2023/05/21 00:38:44;;;;;;;;;;;19.80;90.20;;;20.01;54.59;98246.31;5089126;27;116107;-87
2023/05/21 00:41:10;;;;;;;;;;;19.80;90.30;;;19.99;54.45;98242.34;5064948;27;114353;-87
2023/05/21 00:43:43;;;;;;;;;;;19.70;90.30;;;19.96;54.47;98234.66;5078585;27;124213;-88
2023/05/21 00:46:12;;;;;;;;;;;19.70;90.30;;;19.92;54.85;98234.66;5071646;27;123810;-87
2023/05/21 00:48:43;;;;;;;;;;;19.70;90.40;;;19.89;54.50;98232.63;5058291;27;114479;-88
2023/05/21 00:51:09;;;;;;;;;;;19.70;90.50;;;19.88;54.76;98233.00;5052234;27;113751;-88
2023/05/21 00:53:36;;;;;;;;;;;19.60;90.50;;;19.85;55.13;98229.81;5088692;27;124113;-88
2023/05/21 00:56:11;;;;;;;;;;;19.60;90.60;;;19.82;55.12;98233.38;5081659;27;123862;-88
2023/05/21 00:58:38;;;;;;;;;;;19.60;90.70;;;19.82;55.08;98232.56;5048777;27;113512;-86
2023/05/21 01:01:05;;;;;;;;;;;19.60;90.70;;;19.83;55.11;98235.00;5085720;27;114270;-87
2023/05/21 01:03:43;;;;;;;;;;;19.60;90.80;;;19.83;55.20;98235.00;5083040;27;124763;-87
2023/05/21 01:06:12;;;;;;;;;;;19.60;90.90;;;19.83;55.32;98229.38;5068252;27;122427;-88
2023/05/21 01:08:42;;;;;;;;;;;19.60;90.90;;;19.83;55.20;98235.00;5073289;27;113771;-88
2023/05/21 01:11:09;;;;;;;;;;;19.60;91.00;;;19.82;55.33;98233.38;5076431;27;114312;-86
2023/05/21 01:13:44;;;;;;;;;;;19.60;91.00;;;19.81;55.74;98237.38;5064656;27;124053;-87
2023/05/21 01:16:12;;;;;;;;;;;19.60;91.10;;;19.80;55.68;98229.34;5087122;27;123930;-88
2023/05/21 01:18:43;;;;;;;;;;;19.50;91.10;;;19.80;55.28;98230.16;5078383;27;114291;-87
2023/05/21 01:21:10;;;;;;;;;;;19.50;91.20;;;19.80;55.51;98221.75;5059944;27;113967;-87
2023/05/21 01:23:41;;;;;;;;;;;19.50;91.20;;;19.82;55.66;98221.34;5075119;27;124545;-88
2023/05/21 01:26:11;;;;;;;;;;;19.50;91.60;;;19.76;55.78;98220.09;5088659;27;124076;-87
2023/05/21 01:28:37;;;;;;;;;;;19.50;91.40;;;19.73;55.66;98229.31;5067542;27;114496;-87
2023/05/21 01:31:25;;;;;;;;;;;19.40;91.40;;;19.69;55.77;98218.03;5094674;27;113106;-88
2023/05/21 01:33:55;;;;;;;;;;;19.40;91.50;;;19.70;56.03;98219.66;5086710;27;124182;-87
2023/05/21 01:36:25;;;;;;;;;;;19.40;91.50;;;19.70;55.86;98214.06;5070106;27;122974;-88
2023/05/21 01:39:01;;;;;;;;;;;19.40;91.50;;;19.71;55.77;98214.84;5058961;27;114865;-87
2023/05/21 01:41:34;;;;;;;;;;;19.40;91.90;;;19.68;55.69;98212.84;5068590;27;112861;-88
2023/05/21 01:44:01;;;;;;;;;;;19.40;91.70;;;19.66;55.89;98218.81;5070765;27;123276;-88
2023/05/21 01:46:32;;;;;;;;;;;19.40;91.60;;;19.62;56.06;98223.56;5095247;27;123614;-87
2023/05/21 01:48:58;;;;;;;;;;;19.40;91.70;;;19.58;56.28;98217.91;5090528;27;116193;-89
2023/05/21 01:51:25;;;;;;;;;;;19.30;92.00;;;19.58;56.25;98215.13;5078155;27;113988;-88
2023/05/21 01:53:56;;;;;;;;;;;19.30;91.80;;;19.55;56.34;98215.88;5078823;27;124735;-88
2023/05/21 01:56:24;;;;;;;;;;;19.30;91.80;;;19.55;56.33;98213.09;5078124;27;123953;-88
2023/05/21 01:58:55;;;;;;;;;;;19.30;91.90;;;19.55;56.23;98217.88;5068733;27;114106;-89
2023/05/21 02:01:22;;;;;;;;;;;19.30;91.90;;;19.53;56.44;98214.66;5060982;27;112556;-88
2023/05/21 02:03:49;;;;;;;;;;;19.30;91.90;;;19.52;56.22;98219.47;5090725;27;124270;-88
2023/05/21 02:06:17;;;;;;;;;;;19.20;91.90;;;19.51;56.27;98212.25;5090039;27;123235;-88
2023/05/21 02:08:44;;;;;;;;;;;19.20;92.00;;;19.52;56.41;98207.47;5086868;27;114372;-88
2023/05/21 02:11:13;;;;;;;;;;;19.30;92.10;;;19.51;56.42;98200.25;5089058;27;113922;-87
2023/05/21 02:13:42;;;;;;;;;;;19.20;92.10;;;19.51;56.28;98211.47;5054258;27;123133;-88
2023/05/21 02:16:13;;;;;;;;;;;19.20;92.10;;;19.51;56.54;98209.47;5057858;27;123729;-87
2023/05/21 02:18:45;;;;;;;;;;;19.20;92.20;;;19.51;56.49;98209.47;5085835;27;116125;-89
2023/05/21 02:21:11;;;;;;;;;;;19.20;92.20;;;19.49;56.65;98206.22;5091243;27;114691;-88
2023/05/21 02:23:37;;;;;;;;;;;19.20;92.30;;;19.50;56.47;98216.25;5072103;27;124010;-89
2023/05/21 02:26:06;;;;;;;;;;;19.20;92.30;;;19.48;56.45;98213.03;5073393;27;123850;-88
2023/05/21 02:28:32;;;;;;;;;;;19.20;92.30;;;19.47;56.61;98210.63;5091283;27;114362;-88
2023/05/21 02:30:59;;;;;;;;;;;19.20;92.30;;;19.45;56.92;98207.38;5058121;27;113086;-89
2023/05/21 02:33:31;;;;;;;;;;;19.20;92.40;;;19.41;56.69;98199.75;5090779;27;124387;-88
2023/05/21 02:35:58;;;;;;;;;;;19.10;92.40;;;19.37;56.73;98210.13;5072131;27;122376;-89
2023/05/21 02:38:24;;;;;;;;;;;19.10;92.40;;;19.34;57.01;98208.13;5093787;27;113651;-89
2023/05/21 02:40:56;;;;;;;;;;;19.10;92.40;;;19.33;56.94;98206.47;5090734;27;114080;-88
2023/05/21 02:43:22;;;;;;;;;;;19.10;92.50;;;19.31;57.03;98205.25;5089338;27;124403;-89
2023/05/21 02:45:50;;;;;;;;;;;19.10;92.50;;;19.28;57.01;98206.03;5072304;27;122788;-90
2023/05/21 02:48:18;;;;;;;;;;;19.00;92.50;;;19.27;57.07;98196.03;5087800;27;114268;-88
2023/05/21 02:50:47;;;;;;;;;;;19.00;92.50;;;19.25;57.09;98199.22;5089989;27;113782;-88
2023/05/21 02:53:13;;;;;;;;;;;19.00;92.60;;;19.25;57.20;98199.22;5046400;27;123172;-88
2023/05/21 02:55:41;;;;;;;;;;;19.00;92.60;;;19.23;57.23;98200.78;5087573;27;123963;-89
2023/05/21 02:58:08;;;;;;;;;;;19.00;92.70;;;19.21;57.13;98203.97;5072416;27;113470;-89
2023/05/21 03:00:34;;;;;;;;;;;18.90;92.70;;;19.18;57.26;98204.72;5091005;27;113826;-89
2023/05/21 03:03:00;;;;;;;;;;;18.90;92.80;;;19.19;57.17;98198.75;5041751;27;123878;-88
2023/05/21 03:05:32;;;;;;;;;;;18.90;92.80;;;19.18;57.33;98199.13;5081425;27;123879;-88
2023/05/21 03:07:58;;;;;;;;;;;18.90;92.80;;;19.15;57.40;98186.69;5055977;27;115807;-88
2023/05/21 03:10:25;;;;;;;;;;;18.90;92.90;;;19.16;57.38;98195.94;5066961;27;113633;-88
2023/05/21 03:12:54;;;;;;;;;;;18.90;92.90;;;19.14;57.56;98192.69;5089443;27;124150;-88
2023/05/21 03:15:22;;;;;;;;;;;18.90;92.90;;;19.13;57.68;98185.50;5090304;27;123886;-89
2023/05/21 03:17:49;;;;;;;;;;;18.90;93.00;;;19.12;57.46;98189.47;5090366;27;115193;-88
2023/05/21 03:20:19;;;;;;;;;;;18.80;93.00;;;19.13;57.44;98182.69;5084905;27;113954;-89
2023/05/21 03:22:51;;;;;;;;;;;18.80;93.00;;;19.12;57.53;98184.66;5089793;27;124218;-88
2023/05/21 03:25:17;;;;;;;;;;;18.80;93.00;;;19.13;57.45;98185.50;5061759;27;124132;-88
2023/05/21 03:27:44;;;;;;;;;;;18.80;93.00;;;19.14;57.51;98192.69;5089650;27;114774;-89
2023/05/21 03:30:16;;;;;;;;;;;18.80;93.10;;;19.13;57.61;98185.50;5091917;27;113472;-88
2023/05/21 03:32:45;;;;;;;;;;;18.80;93.10;;;19.10;57.54;98189.03;5071209;27;124880;-89
2023/05/21 03:35:14;;;;;;;;;;;18.80;93.10;;;19.06;57.71;98183.41;5059866;27;123186;-89
2023/05/21 03:37:40;;;;;;;;;;;18.80;93.20;;;19.06;57.66;98185.41;5071459;27;114596;-88
2023/05/21 03:40:07;;;;;;;;;;;18.80;93.20;;;19.02;57.71;98184.56;5071171;27;112720;-88
2023/05/21 03:42:33;;;;;;;;;;;18.70;93.20;;;19.01;57.81;98177.38;5093613;27;122669;-88
2023/05/21 03:45:02;;;;;;;;;;;18.70;93.20;;;18.96;58.08;98176.50;5071998;27;124151;-88
2023/05/21 03:47:29;;;;;;;;;;;18.70;93.20;;;18.95;57.84;98177.69;5073651;27;114619;-88
2023/05/21 03:49:55;;;;;;;;;;;18.70;93.20;;;18.95;57.97;98179.69;5072859;27;113843;-88
2023/05/21 03:52:21;;;;;;;;;;;18.70;93.30;;;18.92;57.97;98186.06;5057720;27;124170;-88
2023/05/21 03:54:50;;;;;;;;;;;18.70;93.30;;;18.90;58.14;98183.66;5078636;27;124576;-89
2023/05/21 03:57:16;;;;;;;;;;;18.60;93.30;;;18.85;58.11;98192.38;5069625;27;114924;-88
2023/05/21 03:59:43;;;;;;;;;;;18.60;93.40;;;18.84;58.19;98196.38;5084970;27;113618;-89
2023/05/21 04:02:09;;;;;;;;;;;18.60;93.40;;;18.84;58.28;98201.19;5082128;27;123347;-88
2023/05/21 04:04:38;;;;;;;;;;;18.60;93.50;;;18.81;58.23;98202.75;5070665;27;123533;-88
2023/05/21 04:07:04;;;;;;;;;;;18.50;93.50;;;18.80;58.35;98203.91;5080313;27;114317;-89
2023/05/21 04:09:31;;;;;;;;;;;18.50;93.50;;;18.80;58.29;98208.72;5084339;27;112575;-89
2023/05/21 04:11:57;;;;;;;;;;;18.50;93.60;;;18.78;58.52;98214.72;5068356;27;123099;-89
2023/05/21 04:14:30;;;;;;;;;;;18.50;93.60;;;18.77;58.26;98207.47;5049141;27;122888;-88
2023/05/21 04:16:56;;;;;;;;;;;18.50;93.70;;;18.76;58.55;98212.28;5062133;27;114568;-88
2023/05/21 04:19:28;;;;;;;;;;;18.50;93.70;;;18.76;58.59;98205.88;5051697;27;112639;-88
2023/05/21 04:21:54;;;;;;;;;;;18.50;93.80;;;18.75;58.55;98218.25;5090821;27;123963;-89
2023/05/21 04:24:21;;;;;;;;;;;18.50;93.80;;;18.73;58.65;98217.81;5077795;27;122699;-89
2023/05/21 04:26:50;;;;;;;;;;;18.40;93.80;;;18.71;58.68;98225.78;5088946;27;114372;-88
2023/05/21 04:29:20;;;;;;;;;;;18.40;93.80;;;18.69;58.89;98222.53;5081852;27;113156;-88
2023/05/21 04:31:53;;;;;;;;;;;18.40;93.90;;;18.66;58.77;98221.31;5062790;27;124213;-88
2023/05/21 04:34:19;;;;;;;;;;;18.40;93.90;;;18.63;58.82;98229.66;5067675;27;123925;-88
2023/05/21 04:36:46;;;;;;;;;;;18.40;94.00;;;18.61;58.80;98232.84;5072519;27;114462;-87
2023/05/21 04:39:15;;;;;;;;;;;18.30;94.00;;;18.61;58.97;98230.03;5073020;27;113799;-89
2023/05/21 04:41:41;;;;;;;;;;;18.30;94.00;;;18.60;58.93;98230.44;5079715;27;124674;-88
2023/05/21 04:44:08;;;;;;;;;;;18.30;94.10;;;18.60;59.08;98236.03;5052858;27;123270;-88
2023/05/21 04:46:41;;;;;;;;;;;18.30;94.10;;;18.61;59.00;98243.22;5081311;27;115522;-89
2023/05/21 04:49:08;;;;;;;;;;;18.30;94.20;;;18.62;59.24;98233.63;5060008;27;113212;-88
2023/05/21 04:51:41;;;;;;;;;;;18.30;94.20;;;18.63;58.99;98229.66;5087537;27;124001;-88
2023/05/21 04:54:07;;;;;;;;;;;18.30;94.30;;;18.64;59.24;98236.88;5076777;27;124335;-88
2023/05/21 04:56:33;;;;;;;;;;;18.30;94.30;;;18.64;59.09;98242.47;5083279;27;114662;-86
2023/05/21 04:59:03;;;;;;;;;;;18.30;94.30;;;18.62;59.16;98242.03;5076516;27;113652;-88
2023/05/21 05:01:31;;;;;;;;;;;18.30;94.30;;;18.60;59.22;98241.63;5082236;27;124945;-88
2023/05/21 05:03:57;;;;;;;;;;;18.30;94.30;;;18.58;59.14;98238.41;5079592;27;123940;-87
2023/05/21 05:06:32;;;;;;;;;;;18.30;94.30;;;18.58;59.30;98238.41;5091654;27;114414;-88
2023/05/21 05:08:58;;;;;;;;;;;18.30;94.40;;;18.58;59.45;98252.38;5071466;27;113000;-88
2023/05/21 05:11:27;;;;;;;;;;;18.30;94.40;;;18.59;59.21;98245.59;5061385;27;124111;-87
2023/05/21 05:13:56;;;;;;;;;;;18.30;94.50;;;18.60;59.35;98242.44;5078610;27;124236;-87
2023/05/21 05:16:28;;;;;;;;;;;18.30;94.50;;;18.59;59.29;98235.22;5080633;27;113813;-86
2023/05/21 05:18:54;;;;;;;;;;;18.30;94.50;;;18.57;59.46;98234.00;5074527;27;113922;-85
2023/05/21 05:21:30;;;;;;;;;;;18.30;94.50;;;18.54;59.21;98238.34;5085543;27;124279;-87
2023/05/21 05:23:56;;;;;;;;;;;18.30;94.90;;;18.51;59.54;98237.13;5055528;27;123267;-86
2023/05/21 05:26:34;;;;;;;;;;;18.20;94.50;;;18.51;59.65;98239.09;5078623;27;114200;-87
2023/05/21 05:29:05;;;;;;;;;;;18.20;94.60;;;18.50;59.62;98231.91;5071663;27;114060;-86
2023/05/21 05:31:31;;;;;;;;;;;18.20;94.70;;;18.51;59.71;98230.69;5068402;27;123868;-86
2023/05/21 05:33:57;;;;;;;;;;;18.20;94.70;;;18.52;59.68;98230.34;5059840;27;123378;-87
2023/05/21 05:36:28;;;;;;;;;;;18.20;94.70;;;18.54;59.65;98232.75;5061397;27;114674;-88
2023/05/21 05:38:54;;;;;;;;;;;18.20;94.70;;;18.54;59.68;98232.75;5086861;27;114405;-86
2023/05/21 05:41:21;;;;;;;;;;;18.20;94.80;;;18.53;59.71;98234.72;5091646;27;124102;-87
2023/05/21 05:43:56;;;;;;;;;;;18.20;94.80;;;18.54;59.64;98235.56;5078631;27;124074;-89
2023/05/21 05:46:28;;;;;;;;;;;18.30;94.80;;;18.57;59.72;98243.19;5065401;27;114561;-88
2023/05/21 05:48:55;;;;;;;;;;;18.30;94.90;;;18.59;59.80;98237.19;5082013;27;113506;-86
2023/05/21 05:51:21;;;;;;;;;;;18.30;94.90;;;18.63;59.72;98240.88;5065038;27;123992;-90
2023/05/21 05:53:56;;;;;;;;;;;18.30;94.90;;;18.66;59.60;98240.91;5071398;27;123990;-88
2023/05/21 05:56:22;;;;;;;;;;;18.30;94.90;;;18.70;59.64;98241.75;5057521;27;114928;-89
2023/05/21 05:58:54;;;;;;;;;;;18.30;94.90;;;18.74;59.60;98239.84;5081431;27;112987;-89
2023/05/21 06:01:23;;;;;;;;;;;18.30;94.90;;;18.77;59.56;98239.06;5084127;27;124411;-88
2023/05/21 06:03:51;;;;;;;;;;;18.40;95.00;;;18.82;59.47;98248.31;5068508;27;123767;-88
2023/05/21 06:06:18;;;;;;;;;;;18.40;95.00;;;18.85;59.30;98241.97;5082689;27;114549;-87
2023/05/21 06:08:45;;;;;;;;;;;18.40;95.00;;;18.87;59.28;98246.00;5061764;27;114071;-88
2023/05/21 06:11:11;;;;;;;;;;;18.50;95.00;;;18.89;59.35;98238.03;5064337;27;124364;-89
2023/05/21 06:13:42;;;;;;;;;;;18.50;94.90;;;18.93;59.26;98243.66;5083122;27;124392;-88
2023/05/21 06:16:12;;;;;;;;;;;18.50;94.90;;;18.94;59.01;98243.28;5083812;27;113973;-88
2023/05/21 06:18:41;;;;;;;;;;;18.50;94.90;;;18.96;59.16;98243.69;5061211;27;113337;-88
2023/05/21 06:21:08;;;;;;;;;;;18.50;94.80;;;18.99;58.96;98247.72;5079801;27;124324;-88
2023/05/21 06:23:36;;;;;;;;;;;18.60;94.80;;;19.03;58.77;98247.78;5074269;27;123983;-89
2023/05/21 06:26:06;;;;;;;;;;;18.60;94.80;;;19.06;58.84;98238.63;5084409;27;115123;-89
2023/05/21 06:28:32;;;;;;;;;;;18.70;94.80;;;19.10;58.77;98247.84;5049192;27;113576;-89
2023/05/21 06:30:58;;;;;;;;;;;18.70;94.80;;;19.14;58.75;98243.91;5075100;27;126323;-91
2023/05/21 06:33:28;;;;;;;;;;;18.70;94.80;;;19.18;58.59;98243.94;5065504;27;125721;-88
2023/05/21 06:35:54;;;;;;;;;;;18.70;94.70;;;19.19;58.44;98245.56;5085311;27;115041;-89
2023/05/21 06:38:20;;;;;;;;;;;18.80;94.70;;;19.24;58.54;98245.22;5054474;27;113978;-89
2023/05/21 06:40:52;;;;;;;;;;;18.80;94.60;;;19.27;58.35;98235.25;5065828;27;123195;-88
2023/05/21 06:43:18;;;;;;;;;;;18.90;94.70;;;19.33;58.11;98239.31;5087223;27;123945;-87
2023/05/21 06:45:44;;;;;;;;;;;18.90;94.60;;;19.38;58.22;98234.16;5081834;27;113776;-88
2023/05/21 06:48:21;;;;;;;;;;;18.90;94.60;;;19.43;58.05;98236.59;5069772;27;113945;-89
2023/05/21 06:50:47;;;;;;;;;;;19.00;94.60;;;19.48;58.07;98237.44;5055428;27;123829;-88
2023/05/21 06:53:16;;;;;;;;;;;19.00;94.50;;;19.53;58.10;98248.28;5058649;27;124293;-87
2023/05/21 06:55:43;;;;;;;;;;;19.00;94.50;;;19.58;57.88;98245.13;5063665;27;114437;-88
2023/05/21 06:58:10;;;;;;;;;;;19.10;94.50;;;19.63;57.69;98241.97;5091061;27;113765;-88
2023/05/21 07:00:36;;;;;;;;;;;19.20;94.50;;;19.69;57.36;98250.88;5062661;27;124311;-88
2023/05/21 07:03:06;;;;;;;;;;;19.20;94.40;;;19.71;57.15;98243.69;5081279;27;124759;-88
2023/05/21 07:05:32;;;;;;;;;;;19.20;94.30;;;19.73;57.31;98248.91;5090731;27;114503;-87
2023/05/21 07:07:58;;;;;;;;;;;19.30;94.20;;;19.72;57.12;98250.91;5076781;27;114078;-87
2023/05/21 07:10:30;;;;;;;;;;;19.30;94.10;;;19.76;56.91;98246.13;5061283;27;124308;-87
2023/05/21 07:12:57;;;;;;;;;;;19.30;94.00;;;19.81;57.04;98248.59;5063854;27;123190;-87
2023/05/21 07:15:23;;;;;;;;;;;19.40;94.00;;;19.85;56.82;98249.44;5051570;27;115141;-90
2023/05/21 07:17:55;;;;;;;;;;;19.40;94.00;;;19.92;56.62;98247.88;5061339;27;115311;-90
2023/05/21 07:20:22;;;;;;;;;;;19.40;93.90;;;19.99;56.35;98242.34;5086671;27;123379;-89
2023/05/21 07:22:48;;;;;;;;;;;19.50;93.90;;;20.09;56.45;98250.00;5055763;27;124172;-87
2023/05/21 07:25:17;;;;;;;;;;;19.60;93.90;;;20.18;55.96;98250.47;5071630;27;114471;-89
2023/05/21 07:27:44;;;;;;;;;;;19.60;93.80;;;20.21;55.64;98252.50;5070806;27;111828;-90
2023/05/21 07:30:11;;;;;;;;;;;19.60;93.60;;;20.20;55.86;98256.50;5067021;27;123870;-90
2023/05/21 07:32:37;;;;;;;;;;;19.60;93.60;;;20.26;56.00;98249.31;5049496;27;125709;-87
2023/05/21 07:35:08;;;;;;;;;;;19.70;93.70;;;20.35;55.69;98251.78;5063023;27;114436;-88
2023/05/21 07:37:34;;;;;;;;;;;19.80;93.70;;;20.45;55.74;98253.06;5067162;27;113730;-89
2023/05/21 07:40:00;;;;;;;;;;;19.90;93.70;;;20.53;55.66;98254.69;5069683;27;124297;-89
2023/05/21 07:42:32;;;;;;;;;;;20.00;93.60;;;20.61;55.11;98244.34;5065933;27;124747;-90
2023/05/21 07:45:01;;;;;;;;;;;20.00;93.30;;;20.64;54.68;98249.19;5065199;27;114452;-90
2023/05/21 07:47:30;;;;;;;;;;;20.10;93.00;;;20.70;54.26;98247.59;5056961;27;113811;-89
2023/05/21 07:49:57;;;;;;;;;;;20.20;93.00;;;20.77;53.73;98247.63;5068972;27;124843;-90
2023/05/21 07:52:24;;;;;;;;;;;20.20;92.70;;;20.83;53.84;98240.44;5072640;27;123875;-84
2023/05/21 07:54:58;;;;;;;;;;;20.30;92.60;;;20.90;53.46;98237.66;5064268;27;115167;-87
2023/05/21 07:57:24;;;;;;;;;;;20.30;92.50;;;20.98;53.12;98243.28;5065973;27;114231;-87
2023/05/21 07:59:53;;;;;;;;;;;20.40;92.40;;;21.07;52.94;98233.31;5058072;27;124030;-89
2023/05/21 08:02:20;;;;;;;;;;;20.50;92.20;;;21.12;52.26;98235.72;5067157;27;124080;-86
2023/05/21 08:04:47;;;;;;;;;;;20.50;92.00;;;21.16;52.41;98239.34;5072449;27;114788;-91
2023/05/21 08:07:20;;;;;;;;;;;20.50;92.10;;;21.19;52.09;98241.34;5050875;27;113994;-89
2023/05/21 08:09:50;;;;;;;;;;;20.60;91.70;;;21.24;51.34;98236.56;5062095;27;124498;-88
2023/05/21 08:12:18;;;;;;;;;;;20.70;91.50;;;21.29;51.81;98233.34;5063596;27;123620;-88
2023/05/21 08:14:44;;;;;;;;;;;20.70;91.40;;;21.31;51.50;98228.16;5057248;27;114129;-89
2023/05/21 08:17:11;;;;;;;;;;;20.80;91.30;;;21.34;51.17;98230.16;5062868;27;112393;-87
2023/05/21 08:19:37;;;;;;;;;;;20.80;91.20;;;21.40;51.27;98234.22;5061803;27;124232;-90
2023/05/21 08:22:05;;;;;;;;;;;20.90;91.10;;;21.48;50.81;98233.00;5068430;27;123880;-89
2023/05/21 08:24:32;;;;;;;;;;;21.00;91.00;;;21.58;51.00;98228.63;5068166;27;114792;-89
2023/05/21 08:26:58;;;;;;;;;;;21.10;90.90;;;21.65;50.56;98233.44;5067227;27;114156;-90
2023/05/21 08:29:24;;;;;;;;;;;21.10;90.70;;;21.71;50.65;98238.28;5066173;27;124365;-90
2023/05/21 08:31:56;;;;;;;;;;;21.10;90.70;;;21.77;50.47;98233.06;5070988;27;124402;-89
2023/05/21 08:34:24;;;;;;;;;;;21.20;90.60;;;21.81;49.98;98242.28;5090686;27;113811;-88
2023/05/21 08:36:54;;;;;;;;;;;21.20;90.50;;;21.82;49.93;98235.47;5068258;27;113746;-88
2023/05/21 08:39:20;;;;;;;;;;;21.30;90.40;;;21.87;49.74;98243.50;5065504;27;124387;-88
2023/05/21 08:41:56;;;;;;;;;;;21.40;90.40;;;21.91;49.39;98235.06;5078989;27;124270;-89
2023/05/21 08:44:25;;;;;;;;;;;21.40;90.20;;;21.96;49.42;98243.88;5057766;27;114619;-88
2023/05/21 08:46:56;;;;;;;;;;;21.50;90.10;;;22.01;49.32;98237.84;5053339;27;112100;-89
2023/05/21 08:49:25;;;;;;;;;;;21.50;90.00;;;22.09;49.35;98230.22;5064946;27;124214;-85
2023/05/21 08:51:55;;;;;;;;;;;21.60;90.10;;;22.19;49.11;98228.63;5079607;27;123871;-87
2023/05/21 08:54:21;;;;;;;;;;;21.60;90.00;;;22.24;49.51;98231.81;5082242;27;115424;-86
2023/05/21 08:56:48;;;;;;;;;;;21.70;90.00;;;22.33;48.74;98233.44;5089177;27;113194;-86
2023/05/21 08:59:18;;;;;;;;;;;21.70;89.70;;;22.37;47.98;98229.38;5077764;27;124854;-87
2023/05/21 09:01:45;;;;;;;;;;;21.80;89.00;;;22.37;47.89;98234.22;5045852;27;123289;-87
2023/05/21 09:04:17;;;;;;;;;;;21.80;88.20;;;22.32;48.08;98232.59;5055697;27;114553;-86
2023/05/21 09:06:43;;;;;;;;;;;21.80;88.20;;;22.26;47.81;98239.88;5062753;27;113288;-89
2023/05/21 09:10:08;;;;;;;;;;;21.80;87.70;;;22.26;47.85;98239.88;5077554;27;124230;-86
2023/05/21 09:12:35;;;;;;;;;;;21.90;88.10;;;22.34;48.25;98238.66;5071470;27;123927;-84
2023/05/21 09:15:05;;;;;;;;;;;21.90;88.20;;;22.40;48.02;98234.19;5061929;27;114567;-87
2023/05/21 09:17:32;;;;;;;;;;;21.90;87.70;;;22.43;48.15;98239.03;5083296;27;112986;-89
2023/05/21 09:20:18;;;;;;;;;;;22.00;87.90;;;22.48;47.48;98246.25;5069892;27;124201;-89
2023/05/21 09:22:46;;;;;;;;;;;22.00;87.80;;;22.52;47.91;98243.44;5065888;27;123174;-88
2023/05/21 09:25:20;;;;;;;;;;;22.00;87.80;;;22.54;47.81;98243.81;5048419;27;113958;-89
2023/05/21 09:27:54;;;;;;;;;;;22.00;87.80;;;22.55;47.62;98245.44;5070168;27;113814;-87
2023/05/21 09:30:20;;;;;;;;;;;22.10;87.30;;;22.53;47.57;98248.66;5085411;27;124107;-86
2023/05/21 09:32:56;;;;;;;;;;;22.00;87.20;;;22.52;47.03;98247.06;5067098;27;124018;-87
2023/05/21 09:35:30;;;;;;;;;;;22.00;86.90;;;22.49;47.05;98240.22;5059804;27;113821;-87
2023/05/21 09:37:56;;;;;;;;;;;22.00;86.20;;;22.45;46.49;98236.59;5079806;27;113194;-86
2023/05/21 09:40:23;;;;;;;;;;;22.00;85.60;;;22.43;46.74;98250.31;5050115;27;125370;-86
2023/05/21 09:42:55;;;;;;;;;;;22.00;85.70;;;22.45;46.51;98242.22;5050310;27;122750;-86
2023/05/21 09:45:31;;;;;;;;;;;22.00;85.50;;;22.50;46.63;98241.81;5073566;27;115429;-87
2023/05/21 09:47:57;;;;;;;;;;;22.10;85.40;;;22.54;46.40;98243.81;5064114;27;114408;-87
2023/05/21 09:50:28;;;;;;;;;;;22.10;85.30;;;22.54;46.19;98243.81;5091575;27;124171;-89
2023/05/21 09:52:55;;;;;;;;;;;22.10;84.60;;;22.60;46.02;98236.59;5081670;27;124141;-87
2023/05/21 09:55:22;;;;;;;;;;;22.20;84.70;;;22.65;45.68;98244.63;5081797;27;114446;-87
2023/05/21 09:57:54;;;;;;;;;;;22.20;84.10;;;22.72;45.51;98236.91;5060767;27;113805;-86
2023/05/21 10:00:26;;;;;;;;;;;22.20;84.00;;;22.76;45.26;98239.75;5065371;27;122606;-87
2023/05/21 10:03:00;;;;;;;;;;;22.30;83.60;;;22.81;45.19;98236.50;5072164;27;123491;-87
2023/05/21 10:05:30;;;;;;;;;;;22.40;83.60;;;22.85;45.35;98242.91;5072874;27;114925;-87
2023/05/21 10:08:09;;;;;;;;;;;22.40;83.90;;;22.90;45.33;98239.69;5072508;27;114246;-88
2023/05/21 10:10:43;;;;;;;;;;;22.40;84.00;;;23.01;45.42;98244.50;5060172;27;124314;-87
2023/05/21 10:13:11;;;;;;;;;;;22.50;84.20;;;23.06;45.15;98244.06;5057995;27;124047;-87
2023/05/21 10:15:43;;;;;;;;;;;22.60;84.00;;;23.12;45.28;98239.59;5068877;27;114212;-87
2023/05/21 10:18:12;;;;;;;;;;;22.60;84.00;;;23.19;45.32;98236.75;5071628;27;114529;-86
2023/05/21 10:20:41;;;;;;;;;;;22.70;83.90;;;23.24;44.77;98238.31;5086617;27;123992;-87
2023/05/21 10:23:08;;;;;;;;;;;22.70;83.40;;;23.22;44.93;98235.94;5084535;27;124109;-87
2023/05/21 10:25:35;;;;;;;;;;;22.70;83.30;;;23.21;45.06;98234.31;5080434;27;114694;-86
2023/05/21 10:28:10;;;;;;;;;;;23.50;84.10;;;23.28;44.99;98236.31;5084551;27;113598;-87
2023/05/21 10:30:37;;;;;;;;;;;22.80;83.50;;;23.33;45.00;98239.50;5053942;27;124552;-87
2023/05/21 10:33:06;;;;;;;;;;;22.90;83.50;;;23.36;44.94;98232.22;5062156;27;123864;-88
2023/05/21 10:35:33;;;;;;;;;;;22.90;83.20;;;23.38;45.14;98230.59;5063093;27;114507;-87
2023/05/21 10:38:07;;;;;;;;;;;23.00;83.30;;;23.42;44.67;98232.59;5090465;27;114645;-87
2023/05/21 10:40:34;;;;;;;;;;;23.00;83.00;;;23.46;44.32;98225.72;5063084;27;124233;-88
2023/05/21 10:43:29;;;;;;;;;;;23.00;82.50;;;23.50;44.23;98231.31;5090674;27;124531;-87
2023/05/21 10:45:58;;;;;;;;;;;23.10;82.40;;;23.55;44.31;98228.06;5090887;27;114687;-87
2023/05/21 10:48:48;;;;;;;;;;;23.00;82.40;;;23.60;44.14;98224.81;5093217;27;113938;-86
2023/05/21 10:51:19;;;;;;;;;;;23.10;82.30;;;23.65;44.36;98227.19;5066899;27;123512;-87
2023/05/21 10:54:24;;;;;;;;;;;23.20;82.40;;;23.70;44.12;98223.94;5072660;27;123167;-86
2023/05/21 10:57:29;;;;;;;;;;;23.30;82.20;;;23.78;43.96;98217.06;5005048;28;115135;-88
2023/05/21 10:59:56;;;;;;;;;;;23.40;82.10;;;23.87;43.74;98213.75;5003714;28;112755;-86
2023/05/21 11:02:25;;;;;;;;;;;23.40;81.80;;;23.90;43.45;98204.44;5004870;28;124624;-87
2023/05/21 11:04:58;;;;;;;;;;;23.40;81.00;;;23.97;43.40;98210.03;5009012;28;123355;-86
2023/05/21 11:07:57;;;;;;;;;;;23.60;80.90;;;23.99;43.55;98218.06;4987582;28;115840;-88
2023/05/21 11:10:35;;;;;;;;;;;23.40;80.80;;;24.06;43.14;98206.72;4979169;28;112391;-87
2023/05/21 11:13:49;;;;;;;;;;;23.60;81.00;;;24.10;43.38;98201.03;5001562;28;123565;-87
2023/05/21 11:16:26;;;;;;;;;;;23.70;80.80;;;24.19;43.21;98209.84;5002791;28;123154;-88
2023/05/21 11:18:56;;;;;;;;;;;23.70;81.00;;;24.28;43.46;98212.16;5006372;28;114185;-89
2023/05/21 11:21:27;;;;;;;;;;;23.80;81.00;;;24.36;42.96;98206.00;5002685;28;113882;-88